CheckWX is a tool to help pilots better visualize weather data.  It is not intended as a substitute for an official pre-flight weather briefing.

18:50:32 UTC

KBWI METAR
Baltimore / Washington International Thurgood Marshall Airport
Baltimore, Maryland, USA
Current

57 mins ago

KBWI 281754Z 30015G19KT 10SM BKN043 07/M03 A2990 RMK AO2 SLP125 T00671033 10067 20022 58013
Observed
Jan-28 @ 17:54 UTC
Wind
  • 300° at 15 KTS
  • Gusting to 19 KTS
Visibility
10 SM
Flight Rules
VFR
Cloud Levels
  • Broken at 4,300' AGL
Temperature
C / 45°F
Dewpoint
-3°C / 27°F
Humidity
49%
Altimeter
29.9" Hg
Pressure
1012.52 hPa
Previous

2 hours ago

KBWI 281654Z 33015G24KT 10SM BKN042 07/M03 A2992 RMK AO2 SLP132 T00671033
Observed
Jan-28 @ 16:54 UTC
Wind
  • 330° at 15 KTS
  • Gusting to 24 KTS
Visibility
10 SM
Flight Rules
VFR
Cloud Levels
  • Broken at 4,200' AGL
Temperature
C / 45°F
Dewpoint
-3°C / 27°F
Humidity
49%
Altimeter
29.92" Hg
Pressure
1013.22 hPa
Previous

3 hours ago

KBWI 281554Z 30015G22KT 10SM SCT035 BKN048 06/M03 A2994 RMK AO2 SLP137 T00611028
Observed
Jan-28 @ 15:54 UTC
Wind
  • 300° at 15 KTS
  • Gusting to 22 KTS
Visibility
10 SM
Flight Rules
VFR
Cloud Levels
  • Scattered at 3,500' AGL
  • Broken at 4,800' AGL
Temperature
C / 43°F
Dewpoint
-3°C / 27°F
Humidity
53%
Altimeter
29.94" Hg
Pressure
1013.92 hPa